createdAt,value
2022-11-03T00:02:07.386Z,75.27
2022-11-03T00:04:33.867Z,75.26
2022-11-03T00:07:00.696Z,75.67
2022-11-03T00:09:27.702Z,75.40
2022-11-03T00:11:54.733Z,75.04
2022-11-03T00:14:21.356Z,75.54
2022-11-03T00:16:47.977Z,75.25
2022-11-03T00:19:16.871Z,75.81
2022-11-03T00:21:43.920Z,75.82
2022-11-03T00:24:11.124Z,75.22
2022-11-03T00:26:38.707Z,75.32
2022-11-03T00:29:12.717Z,75.54
2022-11-03T00:31:41.006Z,75.93
2022-11-03T00:34:07.898Z,76.12
2022-11-03T00:36:42.910Z,75.80
2022-11-03T00:39:10.384Z,75.38
2022-11-03T00:41:37.440Z,76.13
2022-11-03T00:44:04.069Z,76.23
2022-11-03T00:46:34.988Z,76.33
2022-11-03T00:49:04.425Z,76.67
2022-11-03T00:51:31.574Z,76.80
2022-11-03T00:54:00.193Z,77.36
2022-11-03T00:56:28.524Z,77.09
2022-11-03T00:58:56.950Z,76.97
2022-11-03T01:01:26.723Z,77.36
2022-11-03T01:04:14.367Z,77.44
2022-11-03T01:06:50.868Z,76.95
2022-11-03T01:09:45.150Z,77.20
2022-11-03T01:12:17.570Z,76.65
2022-11-03T01:14:52.632Z,76.88
2022-11-03T01:17:25.656Z,77.12
2022-11-03T01:19:53.014Z,76.79
2022-11-03T01:22:20.932Z,76.73
2022-11-03T01:24:47.604Z,76.62
2022-11-03T01:27:17.721Z,75.07
2022-11-03T01:29:44.334Z,75.59
2022-11-03T01:32:11.632Z,75.33
2022-11-03T01:34:38.370Z,76.09
2022-11-03T01:37:05.499Z,76.39
2022-11-03T01:39:32.007Z,76.36
2022-11-03T01:41:58.982Z,76.65
2022-11-03T01:44:28.539Z,76.08
2022-11-03T01:47:23.447Z,76.40
2022-11-03T01:49:55.864Z,76.49
2022-11-03T01:52:33.896Z,76.14
2022-11-03T01:55:40.004Z,76.49
2022-11-03T01:58:11.941Z,75.98
2022-11-03T02:00:41.324Z,76.07
2022-11-03T02:03:08.372Z,75.54
2022-11-03T02:05:36.206Z,75.43
2022-11-03T02:08:10.843Z,75.47
2022-11-03T02:10:38.207Z,75.79
2022-11-03T02:13:12.552Z,75.45
2022-11-03T02:15:39.827Z,75.32
2022-11-03T02:18:07.963Z,75.33
2022-11-03T02:20:34.861Z,74.79
2022-11-03T02:23:10.223Z,75.05
2022-11-03T02:25:42.902Z,75.00
2022-11-03T02:28:10.949Z,74.88
2022-11-03T02:30:51.294Z,74.80
2022-11-03T02:33:31.764Z,74.77
2022-11-03T02:36:17.884Z,75.04
2022-11-03T02:38:58.110Z,75.16
2022-11-03T02:41:26.096Z,74.75
2022-11-03T02:43:55.101Z,74.68
2022-11-03T02:46:25.913Z,74.68
2022-11-03T02:48:52.953Z,74.46
2022-11-03T02:51:19.631Z,74.33
2022-11-03T02:54:03.129Z,73.77
2022-11-03T02:56:34.991Z,73.82
2022-11-03T02:59:06.972Z,73.26
2022-11-03T03:01:46.783Z,72.82
2022-11-03T03:04:22.383Z,72.63
2022-11-03T03:07:02.665Z,73.15
2022-11-03T03:09:36.024Z,72.66
2022-11-03T03:12:04.886Z,73.04
2022-11-03T03:14:37.624Z,72.84
2022-11-03T03:17:30.975Z,73.07
2022-11-03T03:20:17.775Z,72.79
2022-11-03T03:22:57.145Z,73.00
2022-11-03T03:25:29.518Z,72.74
2022-11-03T03:28:13.538Z,72.97
2022-11-03T03:30:43.853Z,72.99
2022-11-03T03:33:11.227Z,73.33
2022-11-03T03:35:40.181Z,73.64
2022-11-03T03:38:13.901Z,73.54
2022-11-03T03:40:42.993Z,73.46
2022-11-03T03:43:14.151Z,73.91
2022-11-03T03:45:43.063Z,73.93
2022-11-03T03:48:09.766Z,74.04
2022-11-03T03:50:38.636Z,74.45
2022-11-03T03:53:09.441Z,74.19
2022-11-03T03:55:42.034Z,74.09
2022-11-03T03:58:11.917Z,74.59
2022-11-03T04:00:40.159Z,74.31
2022-11-03T04:03:13.611Z,74.45
2022-11-03T04:05:40.055Z,74.79
2022-11-03T04:08:06.693Z,74.52
2022-11-03T04:10:33.557Z,74.84
2022-11-03T04:13:18.872Z,74.76
2022-11-03T04:15:57.278Z,75.46
2022-11-03T04:18:42.559Z,75.54
2022-11-03T04:21:31.715Z,75.34
2022-11-03T04:24:00.358Z,75.42
2022-11-03T04:26:28.155Z,75.63
2022-11-03T04:28:56.205Z,75.52
2022-11-03T04:31:22.902Z,75.74
2022-11-03T04:33:49.487Z,75.64
2022-11-03T04:36:22.000Z,75.65
2022-11-03T04:38:49.954Z,76.15
2022-11-03T04:41:38.787Z,75.56
2022-11-03T04:44:10.621Z,75.75
2022-11-03T04:46:37.104Z,75.87
2022-11-03T04:49:05.666Z,76.49
2022-11-03T04:51:34.887Z,76.58
2022-11-03T04:54:15.918Z,76.31
2022-11-03T04:56:42.499Z,76.98
2022-11-03T04:59:12.805Z,76.81
2022-11-03T05:01:39.908Z,76.92
2022-11-03T05:04:13.724Z,76.36
2022-11-03T05:06:40.783Z,76.18
2022-11-03T05:09:17.929Z,75.97
2022-11-03T05:11:46.478Z,76.74
2022-11-03T05:14:25.812Z,76.71
2022-11-03T05:16:54.496Z,75.86
2022-11-03T05:19:27.159Z,76.07
2022-11-03T05:21:58.181Z,75.43
2022-11-03T05:24:26.136Z,75.34
2022-11-03T05:26:54.916Z,75.25
2022-11-03T05:29:23.843Z,75.39
2022-11-03T05:31:53.772Z,75.49
2022-11-03T05:34:34.976Z,75.66
2022-11-03T05:37:26.819Z,75.23
2022-11-03T05:39:57.051Z,75.45
2022-11-03T05:42:23.523Z,75.80
2022-11-03T05:44:51.660Z,75.81
2022-11-03T05:47:25.099Z,75.73
2022-11-03T05:49:56.113Z,75.68
2022-11-03T05:52:25.731Z,76.13
2022-11-03T05:54:59.285Z,75.78
2022-11-03T05:57:29.424Z,76.46
2022-11-03T05:59:57.345Z,76.05
2022-11-03T06:02:38.679Z,76.00
2022-11-03T06:05:20.359Z,76.62
2022-11-03T06:07:48.251Z,76.77
2022-11-03T06:10:24.023Z,76.99
2022-11-03T06:12:50.682Z,76.72
2022-11-03T06:15:28.607Z,76.60
2022-11-03T06:17:56.109Z,76.89
2022-11-03T06:20:23.264Z,77.48
2022-11-03T06:22:52.632Z,77.13
2022-11-03T06:25:27.056Z,76.83
2022-11-03T06:27:58.028Z,77.01
2022-11-03T06:30:28.116Z,76.97
2022-11-03T06:33:07.388Z,77.47
2022-11-03T06:35:34.971Z,76.96
2022-11-03T06:38:02.264Z,76.58
2022-11-03T06:40:37.104Z,76.66
2022-11-03T06:43:16.514Z,76.84
2022-11-03T06:45:52.527Z,76.85
2022-11-03T06:48:25.037Z,77.13
2022-11-03T06:50:52.727Z,76.96
2022-11-03T06:53:25.337Z,77.22
2022-11-03T06:55:52.051Z,77.32
2022-11-03T06:58:30.674Z,77.06
2022-11-03T07:01:03.633Z,76.91
2022-11-03T07:03:37.543Z,76.69
2022-11-03T07:06:10.102Z,76.63
2022-11-03T07:08:43.609Z,76.82
2022-11-03T07:11:22.822Z,76.68
2022-11-03T07:13:56.110Z,76.52
2022-11-03T07:16:27.850Z,76.47
2022-11-03T07:18:56.390Z,76.74
2022-11-03T07:21:26.179Z,76.50
2022-11-03T07:23:52.974Z,76.34
2022-11-03T07:26:19.515Z,76.77
2022-11-03T07:28:48.404Z,76.33
2022-11-03T07:31:25.374Z,76.45
2022-11-03T07:34:01.335Z,76.53
2022-11-03T07:36:31.828Z,76.63
2022-11-03T07:39:00.467Z,76.29
2022-11-03T07:41:34.223Z,76.45
2022-11-03T07:44:02.486Z,76.52
2022-11-03T07:46:29.388Z,76.51
2022-11-03T07:49:02.221Z,76.77
2022-11-03T07:51:41.003Z,76.76
2022-11-03T07:54:19.444Z,76.09
2022-11-03T07:56:50.762Z,76.31
2022-11-03T07:59:21.804Z,76.13
2022-11-03T08:01:54.136Z,75.77
2022-11-03T08:04:25.782Z,75.58
2022-11-03T08:06:52.755Z,75.80
2022-11-03T08:09:19.719Z,75.56
2022-11-03T08:11:46.333Z,75.61
2022-11-03T08:14:13.539Z,75.79
2022-11-03T08:16:40.353Z,75.05
2022-11-03T08:19:07.072Z,75.45
2022-11-03T08:21:33.738Z,75.55
2022-11-03T08:24:00.514Z,75.34
2022-11-03T08:26:28.098Z,75.91
2022-11-03T08:28:54.803Z,75.27
2022-11-03T08:31:21.444Z,75.63
2022-11-03T08:33:48.032Z,75.43
2022-11-03T08:36:14.651Z,75.25
2022-11-03T08:38:41.353Z,75.39
2022-11-03T08:41:07.926Z,75.10
2022-11-03T08:43:34.477Z,75.11
2022-11-03T08:46:09.765Z,75.33
2022-11-03T08:48:42.333Z,74.92
2022-11-03T08:51:10.274Z,74.90
2022-11-03T08:53:38.452Z,74.84
2022-11-03T08:56:10.284Z,74.47
2022-11-03T08:58:39.195Z,74.38
2022-11-03T09:01:05.858Z,73.92
2022-11-03T09:03:32.361Z,73.89
2022-11-03T09:05:59.252Z,73.26
2022-11-03T09:11:12.922Z,73.51
2022-11-03T09:13:39.510Z,73.49
2022-11-03T09:16:06.510Z,73.11
2022-11-03T09:18:34.097Z,73.45
2022-11-03T09:21:00.765Z,73.48
2022-11-03T09:23:27.815Z,73.02
2022-11-03T09:25:55.693Z,72.62
2022-11-03T09:28:23.071Z,72.38
2022-11-03T09:30:49.594Z,72.24
2022-11-03T09:33:16.122Z,72.77
2022-11-03T09:35:42.597Z,72.21
2022-11-03T09:38:09.119Z,71.89
2022-11-03T09:40:36.229Z,71.91
2022-11-03T09:43:03.395Z,72.26
2022-11-03T09:45:30.201Z,72.62
2022-11-03T09:47:57.688Z,72.49
2022-11-03T09:50:25.097Z,72.84
2022-11-03T09:52:54.439Z,72.27
2022-11-03T09:55:26.280Z,73.05
2022-11-03T09:58:00.698Z,73.21
2022-11-03T10:00:27.930Z,73.01
2022-11-03T10:02:56.112Z,73.67
2022-11-03T10:05:27.791Z,73.36
2022-11-03T10:08:00.717Z,73.65
2022-11-03T10:10:27.964Z,73.73
2022-11-03T10:12:55.336Z,73.17
2022-11-03T10:15:23.751Z,73.24
2022-11-03T10:17:51.245Z,73.45
2022-11-03T10:20:21.077Z,73.42
2022-11-03T10:22:52.588Z,73.30
2022-11-03T10:25:40.079Z,72.77
2022-11-03T10:28:27.205Z,72.30
2022-11-03T10:31:11.635Z,71.93
2022-11-03T10:34:00.840Z,71.36
2022-11-03T10:36:30.405Z,71.10
2022-11-03T10:38:58.337Z,70.86
2022-11-03T10:41:27.893Z,70.47
2022-11-03T10:44:12.618Z,70.80
2022-11-03T10:46:56.038Z,70.73
2022-11-03T10:49:23.241Z,70.53
2022-11-03T10:51:59.386Z,70.62
2022-11-03T10:54:26.391Z,70.77
2022-11-03T10:56:53.107Z,70.25
2022-11-03T10:59:22.394Z,70.66
2022-11-03T11:01:49.159Z,70.28
2022-11-03T11:04:20.510Z,70.12
2022-11-03T11:06:47.934Z,70.05
2022-11-03T11:09:21.232Z,69.83
2022-11-03T11:12:05.592Z,69.73
2022-11-03T11:14:39.116Z,69.93
2022-11-03T11:17:06.370Z,69.59
2022-11-03T11:20:13.174Z,69.53
2022-11-03T11:22:39.729Z,69.48
2022-11-03T11:25:06.632Z,69.68
2022-11-03T11:27:35.816Z,69.79
2022-11-03T11:30:30.636Z,69.33
2022-11-03T11:33:15.136Z,70.31
2022-11-03T11:35:41.571Z,69.31
2022-11-03T11:38:55.496Z,69.00
2022-11-03T11:42:02.269Z,69.18
2022-11-03T11:44:45.695Z,68.98
2022-11-03T11:47:46.163Z,68.53
2022-11-03T11:50:21.518Z,68.46
2022-11-03T11:52:59.357Z,68.51
2022-11-03T11:55:34.831Z,68.69
2022-11-03T11:58:03.985Z,68.87
2022-11-03T12:00:33.315Z,68.45
2022-11-03T12:03:02.366Z,68.68
2022-11-03T12:05:32.792Z,68.25
2022-11-03T12:08:00.573Z,67.71
2022-11-03T12:10:30.079Z,68.57
2022-11-03T12:12:59.525Z,68.64
2022-11-03T12:15:56.547Z,69.03
2022-11-03T12:18:39.189Z,69.29
2022-11-03T12:21:09.655Z,69.83
2022-11-03T12:23:47.298Z,70.07
2022-11-03T12:26:29.382Z,69.59
2022-11-03T12:28:56.203Z,70.44
2022-11-03T12:31:22.716Z,70.85
2022-11-03T12:33:49.220Z,70.94
2022-11-03T12:36:15.735Z,70.79
2022-11-03T12:38:42.433Z,70.35
2022-11-03T12:41:27.000Z,70.60
2022-11-03T12:43:54.407Z,70.56
2022-11-03T12:46:22.192Z,70.98
2022-11-03T12:48:49.291Z,71.21
2022-11-03T12:51:18.120Z,71.20
2022-11-03T12:53:45.236Z,71.58
2022-11-03T12:56:12.725Z,71.03
2022-11-03T12:58:39.544Z,71.75
2022-11-03T13:01:07.508Z,71.86
2022-11-03T13:03:35.842Z,71.69
2022-11-03T13:06:04.645Z,71.69
2022-11-03T13:08:31.868Z,71.51
2022-11-03T13:10:58.879Z,71.72
2022-11-03T13:13:27.105Z,72.14
2022-11-03T13:15:54.006Z,72.16
2022-11-03T13:18:22.507Z,72.15
2022-11-03T13:20:49.226Z,72.20
2022-11-03T13:23:18.758Z,71.22
2022-11-03T13:25:48.827Z,71.29
2022-11-03T13:28:15.438Z,71.04
2022-11-03T13:30:41.952Z,71.49
2022-11-03T13:33:09.194Z,71.38
2022-11-03T13:35:36.038Z,71.40
2022-11-03T13:38:02.596Z,70.72
2022-11-03T13:40:54.973Z,70.42
2022-11-03T13:43:15.847Z,71.10
2022-11-03T13:45:42.339Z,71.28
2022-11-03T13:50:57.589Z,70.63
2022-11-03T13:56:16.914Z,71.73
2022-11-03T14:01:35.745Z,70.96
2022-11-03T14:06:49.093Z,71.12
2022-11-03T14:09:15.595Z,70.54
2022-11-03T14:12:00.885Z,70.98
2022-11-03T14:14:27.824Z,70.75
2022-11-03T14:16:54.834Z,71.18
2022-11-03T14:19:21.829Z,70.96
2022-11-03T14:21:48.373Z,71.13
2022-11-03T14:24:14.954Z,71.20
2022-11-03T14:26:43.088Z,70.77
2022-11-03T14:29:10.472Z,70.76
2022-11-03T14:31:37.171Z,70.46
2022-11-03T14:34:03.696Z,70.15
2022-11-03T14:36:30.168Z,70.21
2022-11-03T14:38:58.596Z,70.17
2022-11-03T14:41:44.115Z,69.95
2022-11-03T14:44:10.601Z,70.17
2022-11-03T14:46:37.184Z,70.26
2022-11-03T14:49:03.701Z,70.10
2022-11-03T14:51:30.844Z,70.41
2022-11-03T14:53:58.469Z,70.14
2022-11-03T14:56:25.837Z,69.88
2022-11-03T14:58:52.364Z,70.24
2022-11-03T15:01:19.948Z,70.22
2022-11-03T15:03:46.763Z,70.92
2022-11-03T15:06:13.296Z,70.32
2022-11-03T15:08:39.910Z,70.94
2022-11-03T15:11:10.488Z,71.11
2022-11-03T15:13:41.721Z,70.73
2022-11-03T15:16:12.549Z,70.70
2022-11-03T15:18:39.009Z,71.17
2022-11-03T15:21:05.772Z,70.88
2022-11-03T15:26:18.761Z,70.91
2022-11-03T15:28:45.228Z,71.19
2022-11-03T15:31:11.683Z,71.27
2022-11-03T15:33:38.211Z,71.06
2022-11-03T15:36:06.972Z,71.22
2022-11-03T15:38:33.755Z,71.34
2022-11-03T15:41:15.573Z,70.80
2022-11-03T15:43:47.141Z,70.91
2022-11-03T15:46:15.250Z,70.96
2022-11-03T15:48:42.836Z,71.30
2022-11-03T15:51:10.065Z,70.67
2022-11-03T15:53:36.769Z,70.48
2022-11-03T15:56:03.799Z,70.38
2022-11-03T15:58:33.948Z,70.85
2022-11-03T16:01:02.310Z,71.05
2022-11-03T16:03:29.669Z,71.26
2022-11-03T16:05:56.488Z,70.79
2022-11-03T16:08:22.973Z,70.84
2022-11-03T16:10:53.304Z,70.32
2022-11-03T16:13:24.782Z,70.54
2022-11-03T16:15:51.713Z,70.47
2022-11-03T16:18:18.291Z,70.75
2022-11-03T16:20:44.826Z,70.61
2022-11-03T16:23:12.063Z,71.39
2022-11-03T16:25:38.661Z,71.43
2022-11-03T16:28:05.606Z,72.10
2022-11-03T16:30:33.496Z,71.73
2022-11-03T16:33:00.053Z,71.60
2022-11-03T16:35:29.327Z,72.37
2022-11-03T16:37:56.175Z,71.83
2022-11-03T16:40:22.703Z,72.18
2022-11-03T16:42:49.126Z,72.16
2022-11-03T16:45:18.646Z,72.63
2022-11-03T16:47:46.818Z,72.11
2022-11-03T16:50:14.766Z,72.16
2022-11-03T16:52:41.218Z,71.97
2022-11-03T16:55:10.317Z,72.07
2022-11-03T16:57:36.805Z,72.36
2022-11-03T17:00:05.187Z,71.57
2022-11-03T17:02:31.916Z,72.26
2022-11-03T17:04:58.493Z,72.33
2022-11-03T17:07:25.411Z,72.59
2022-11-03T17:09:52.470Z,72.18
2022-11-03T17:12:19.065Z,72.66
2022-11-03T17:14:45.805Z,72.17
2022-11-03T17:17:12.573Z,72.63
2022-11-03T17:19:39.276Z,72.96
2022-11-03T17:22:05.785Z,72.68
2022-11-03T17:24:32.369Z,72.86
2022-11-03T17:27:00.667Z,72.65
2022-11-03T17:29:41.742Z,73.02
2022-11-03T17:32:13.572Z,72.84
2022-11-03T17:34:40.147Z,73.10
2022-11-03T17:37:06.897Z,72.62
2022-11-03T17:39:34.399Z,72.58
2022-11-03T17:42:13.549Z,72.65
2022-11-03T17:44:40.123Z,72.78
2022-11-03T17:47:06.647Z,72.41
2022-11-03T17:49:33.497Z,72.79
2022-11-03T17:52:00.007Z,72.72
2022-11-03T17:54:32.007Z,72.24
2022-11-03T17:57:00.733Z,73.07
2022-11-03T17:59:27.948Z,73.16
2022-11-03T18:01:55.678Z,72.48
2022-11-03T18:04:22.927Z,71.97
2022-11-03T18:06:49.414Z,72.51
2022-11-03T18:09:16.261Z,72.15
2022-11-03T18:12:02.130Z,73.02
2022-11-03T18:14:29.640Z,72.83
2022-11-03T18:16:57.142Z,72.52
2022-11-03T18:19:23.649Z,72.72
2022-11-03T18:21:50.171Z,72.31
2022-11-03T18:24:19.585Z,72.28
2022-11-03T18:26:46.061Z,72.04
2022-11-03T18:29:12.554Z,71.91
2022-11-03T18:31:42.884Z,72.19
2022-11-03T18:34:17.022Z,72.51
2022-11-03T18:36:44.279Z,72.54
2022-11-03T18:39:16.790Z,72.95
2022-11-03T18:41:44.600Z,73.09
2022-11-03T18:44:25.505Z,72.51
2022-11-03T18:46:52.681Z,72.98
2022-11-03T18:49:19.781Z,73.24
2022-11-03T18:52:02.841Z,72.64
2022-11-03T18:54:31.504Z,72.81
2022-11-03T18:56:58.535Z,72.40
2022-11-03T18:59:32.152Z,72.74
2022-11-03T19:01:59.590Z,72.96
2022-11-03T19:04:26.986Z,73.15
2022-11-03T19:06:53.846Z,73.64
2022-11-03T19:09:26.076Z,73.37
2022-11-03T19:11:56.265Z,73.88
2022-11-03T19:14:26.257Z,73.42
2022-11-03T19:19:39.926Z,73.85
2022-11-03T19:22:15.364Z,73.72
2022-11-03T19:24:45.330Z,73.57
2022-11-03T19:27:25.862Z,73.65
2022-11-03T19:29:53.324Z,73.29
2022-11-03T19:32:24.505Z,72.86
2022-11-03T19:34:56.357Z,72.19
2022-11-03T19:37:22.920Z,71.39
2022-11-03T19:39:49.552Z,71.08
2022-11-03T19:42:31.092Z,71.80
2022-11-03T19:44:59.490Z,71.64
2022-11-03T19:47:31.704Z,72.18
2022-11-03T19:50:02.458Z,72.90
2022-11-03T19:52:30.559Z,72.82
2022-11-03T19:54:58.432Z,74.06
2022-11-03T19:57:25.024Z,75.28
2022-11-03T19:59:51.497Z,75.97
2022-11-03T20:02:18.082Z,76.25
2022-11-03T20:04:47.163Z,76.62
2022-11-03T20:07:15.577Z,77.44
2022-11-03T20:09:42.765Z,77.32
2022-11-03T20:12:12.129Z,77.72
2022-11-03T20:14:38.589Z,78.36
2022-11-03T20:17:17.667Z,78.50
2022-11-03T20:19:44.252Z,77.86
2022-11-03T20:22:16.175Z,78.26
2022-11-03T20:24:45.012Z,78.58
2022-11-03T20:27:12.196Z,78.50
2022-11-03T20:29:39.598Z,78.54
2022-11-03T20:32:06.449Z,78.37
2022-11-03T20:34:33.093Z,78.38
2022-11-03T20:37:04.443Z,78.35
2022-11-03T20:39:32.770Z,78.60
2022-11-03T20:41:59.756Z,78.58
2022-11-03T20:44:26.222Z,78.03
2022-11-03T20:46:52.705Z,77.94
2022-11-03T20:49:19.160Z,77.64
2022-11-03T20:51:47.154Z,77.75
2022-11-03T20:54:17.493Z,77.56
2022-11-03T20:56:44.157Z,78.11
2022-11-03T20:59:13.508Z,77.58
2022-11-03T21:01:41.291Z,77.49
2022-11-03T21:04:14.098Z,78.03
2022-11-03T21:06:40.789Z,78.08
2022-11-03T21:09:11.909Z,77.72
2022-11-03T21:11:40.461Z,76.78
2022-11-03T21:14:12.916Z,76.97
2022-11-03T21:16:58.139Z,77.41
2022-11-03T21:19:45.770Z,77.50
2022-11-03T21:22:30.767Z,78.08
2022-11-03T21:25:01.020Z,77.24
2022-11-03T21:27:28.038Z,77.11
2022-11-03T21:29:59.418Z,77.64
2022-11-03T21:32:28.033Z,78.60
2022-11-03T21:34:54.754Z,79.73
2022-11-03T21:37:21.365Z,80.60
2022-11-03T21:39:47.804Z,82.02
2022-11-03T21:42:34.409Z,82.59
2022-11-03T21:45:02.400Z,83.49
2022-11-03T21:47:28.997Z,84.80
2022-11-03T21:49:55.822Z,85.68
2022-11-03T21:52:32.941Z,86.33
2022-11-03T21:55:02.416Z,86.91
2022-11-03T21:57:29.683Z,87.68
2022-11-03T21:59:59.624Z,89.02
2022-11-03T22:02:28.092Z,89.65
2022-11-03T22:04:55.873Z,90.02
2022-11-03T22:07:23.013Z,90.24
2022-11-03T22:09:49.569Z,90.38
2022-11-03T22:12:16.149Z,91.15
2022-11-03T22:15:01.069Z,91.22
2022-11-03T22:17:27.901Z,91.18
2022-11-03T22:20:12.971Z,92.29
2022-11-03T22:22:58.388Z,91.77
2022-11-03T22:25:43.801Z,92.48
2022-11-03T22:28:14.646Z,92.71
2022-11-03T22:31:00.594Z,93.02
2022-11-03T22:33:27.875Z,92.86
2022-11-03T22:36:21.446Z,93.15
2022-11-03T22:39:06.959Z,93.39
2022-11-03T22:41:52.347Z,92.95
2022-11-03T22:44:37.507Z,92.89
2022-11-03T22:47:06.784Z,92.88
2022-11-03T22:49:34.920Z,93.57
2022-11-03T22:52:02.440Z,93.19
2022-11-03T22:54:28.877Z,93.26
2022-11-03T22:56:56.306Z,92.92
2022-11-03T22:59:22.992Z,93.74
2022-11-03T23:01:49.669Z,94.07
2022-11-03T23:04:16.249Z,94.29
2022-11-03T23:06:42.892Z,94.52
2022-11-03T23:09:12.686Z,94.68
2022-11-03T23:11:41.512Z,94.71
2022-11-03T23:14:10.952Z,94.87
2022-11-03T23:16:40.325Z,95.47
2022-11-03T23:19:28.197Z,94.91
2022-11-03T23:21:55.738Z,94.82
2022-11-03T23:24:45.092Z,95.09
2022-11-03T23:27:12.946Z,94.53
2022-11-03T23:29:39.441Z,94.93
2022-11-03T23:32:06.735Z,94.58
2022-11-03T23:34:35.048Z,94.93
2022-11-03T23:37:02.836Z,95.19
2022-11-03T23:39:29.443Z,94.61
2022-11-03T23:41:56.387Z,94.75
2022-11-03T23:44:23.021Z,93.61
2022-11-03T23:47:07.949Z,94.24
2022-11-03T23:49:34.391Z,93.09
2022-11-03T23:52:01.046Z,92.16
2022-11-03T23:54:27.628Z,92.29
2022-11-03T23:57:12.859Z,92.14
2022-11-03T23:59:39.352Z,92.49
